Time;durP1;ratioP1;P1;durP2;ratioP2;P2;SDS_P1;SDS_P2;PMS_P1;PMS_P2;Temp;Humidity;BMP_temperature;BMP_pressure;BME280_temperature;BME280_humidity;BME280_pressure;Samples;Min_cycle;Max_cycle;Signal;HPM_P1;HPM_P2
2022/09/07 00:02:23;;;;;;;;;;;17.10;99.90;;;;;;5070731;28;19964;-65
2022/09/07 00:04:49;;;;;;;;;;;17.20;99.90;;;;;;5073734;28;19971;-65
2022/09/07 00:07:16;;;;;;;;;;;17.20;99.90;;;;;;5071132;28;20405;-65
2022/09/07 00:09:42;;;;;;;;;;;17.20;99.90;;;;;;5071738;28;20027;-65
2022/09/07 00:12:09;;;;;;;;;;;17.00;99.90;;;;;;5063639;28;20448;-65
2022/09/07 00:14:37;;;;;;;;;;;17.00;99.90;;;;;;5072172;28;20020;-65
2022/09/07 00:17:04;;;;;;;;;;;17.10;99.90;;;;;;5072009;28;19924;-65
2022/09/07 00:19:31;;;;;;;;;;;17.10;99.90;;;;;;5064286;28;19924;-64
2022/09/07 00:21:57;;;;;;;;;;;17.20;99.90;;;;;;5066043;28;20432;-65
2022/09/07 00:24:24;;;;;;;;;;;17.20;99.90;;;;;;5072006;28;20289;-64
2022/09/07 00:26:54;;;;;;;;;;;17.20;99.90;;;;;;5071616;28;20382;-65
2022/09/07 00:29:21;;;;;;;;;;;17.30;99.90;;;;;;5070847;28;20407;-65
2022/09/07 00:31:49;;;;;;;;;;;17.30;99.90;;;;;;5071460;28;19928;-64
2022/09/07 00:34:16;;;;;;;;;;;17.40;99.90;;;;;;5071671;28;19924;-65
2022/09/07 00:36:42;;;;;;;;;;;17.40;99.90;;;;;;5071714;28;19973;-64
2022/09/07 00:39:09;;;;;;;;;;;17.50;99.90;;;;;;5070899;28;19978;-65
2022/09/07 00:41:36;;;;;;;;;;;17.50;99.90;;;;;;5070613;28;19948;-64
2022/09/07 00:44:17;;;;;;;;;;;17.60;99.90;;;;;;5071681;28;19924;-65
2022/09/07 00:46:45;;;;;;;;;;;17.70;99.90;;;;;;5069122;28;19924;-65
2022/09/07 00:49:15;;;;;;;;;;;17.70;99.90;;;;;;5062389;28;19978;-64
2022/09/07 00:51:43;;;;;;;;;;;17.70;99.90;;;;;;5066600;28;20397;-65
2022/09/07 00:54:12;;;;;;;;;;;17.70;99.90;;;;;;5067806;28;20445;-65
2022/09/07 00:56:41;;;;;;;;;;;17.70;99.90;;;;;;5064280;28;20453;-65
2022/09/07 00:59:09;;;;;;;;;;;17.70;99.90;;;;;;5066749;28;20411;-65
2022/09/07 01:01:36;;;;;;;;;;;17.70;99.90;;;;;;5062817;28;19925;-65
2022/09/07 01:04:03;;;;;;;;;;;17.70;99.90;;;;;;5070878;28;20392;-65
2022/09/07 01:06:32;;;;;;;;;;;17.60;99.90;;;;;;5071046;28;19939;-65
2022/09/07 01:09:01;;;;;;;;;;;17.60;99.90;;;;;;5069694;28;19924;-65
2022/09/07 01:11:27;;;;;;;;;;;17.60;99.90;;;;;;5070716;28;19925;-65
2022/09/07 01:13:56;;;;;;;;;;;17.60;99.90;;;;;;5070801;28;19925;-65
2022/09/07 01:16:31;;;;;;;;;;;17.60;99.90;;;;;;5070593;28;19924;-65
2022/09/07 01:19:05;;;;;;;;;;;17.60;99.90;;;;;;5067022;28;19929;-65
2022/09/07 01:21:37;;;;;;;;;;;17.60;99.90;;;;;;5062162;28;19939;-65
2022/09/07 01:24:25;;;;;;;;;;;17.60;99.90;;;;;;5066604;28;20351;-65
2022/09/07 01:27:13;;;;;;;;;;;17.60;99.90;;;;;;5058139;28;20422;-65
2022/09/07 01:29:46;;;;;;;;;;;17.60;99.90;;;;;;5072570;28;19924;-65
2022/09/07 01:32:20;;;;;;;;;;;17.40;99.90;;;;;;5068429;28;19924;-65
2022/09/07 01:34:51;;;;;;;;;;;17.40;99.90;;;;;;5070643;28;20349;-65
2022/09/07 01:37:22;;;;;;;;;;;17.50;99.90;;;;;;5070605;28;20545;-64
2022/09/07 01:39:53;;;;;;;;;;;17.50;99.90;;;;;;5070417;28;19925;-65
2022/09/07 01:42:20;;;;;;;;;;;17.40;99.90;;;;;;5070275;28;19932;-65
2022/09/07 01:44:50;;;;;;;;;;;17.40;99.90;;;;;;5070408;28;19925;-65
2022/09/07 01:47:18;;;;;;;;;;;17.50;99.90;;;;;;5064163;28;19931;-65
2022/09/07 01:49:47;;;;;;;;;;;17.50;99.90;;;;;;5070222;28;19928;-65
2022/09/07 01:52:16;;;;;;;;;;;17.50;99.90;;;;;;5075331;28;19924;-65
2022/09/07 01:54:45;;;;;;;;;;;17.50;99.90;;;;;;5070468;28;20342;-65
2022/09/07 01:57:14;;;;;;;;;;;17.50;99.90;;;;;;5070295;28;19925;-65
2022/09/07 01:59:43;;;;;;;;;;;17.50;99.90;;;;;;5069910;28;19947;-65
2022/09/07 02:02:13;;;;;;;;;;;17.60;99.90;;;;;;5070540;28;20011;-65
2022/09/07 02:04:42;;;;;;;;;;;17.60;99.90;;;;;;5069984;28;19951;-65
2022/09/07 02:07:11;;;;;;;;;;;17.70;99.90;;;;;;5070347;28;20367;-65
2022/09/07 02:09:40;;;;;;;;;;;17.70;99.90;;;;;;5069789;28;19940;-65
2022/09/07 02:12:11;;;;;;;;;;;17.60;99.90;;;;;;5070181;28;19925;-65
2022/09/07 02:14:39;;;;;;;;;;;17.60;99.90;;;;;;5065996;28;19924;-65
2022/09/07 02:17:11;;;;;;;;;;;17.50;99.90;;;;;;5070397;28;19924;-65
2022/09/07 02:19:42;;;;;;;;;;;17.50;99.90;;;;;;5065706;28;19925;-64
2022/09/07 02:22:11;;;;;;;;;;;17.40;99.90;;;;;;5073663;28;19936;-65
2022/09/07 02:24:40;;;;;;;;;;;17.40;99.90;;;;;;5068526;28;19924;-65
2022/09/07 02:27:10;;;;;;;;;;;17.40;99.90;;;;;;5073886;28;19925;-65
2022/09/07 02:29:37;;;;;;;;;;;17.30;99.90;;;;;;5065629;28;19924;-65
2022/09/07 02:32:04;;;;;;;;;;;17.30;99.90;;;;;;5073704;28;19925;-65
2022/09/07 02:34:31;;;;;;;;;;;17.20;99.90;;;;;;5081808;28;20326;-65
2022/09/07 02:37:01;;;;;;;;;;;17.20;99.90;;;;;;5073577;28;19932;-64
2022/09/07 02:39:28;;;;;;;;;;;17.20;99.90;;;;;;5073324;28;19974;-65
2022/09/07 02:41:55;;;;;;;;;;;17.10;99.90;;;;;;5072837;28;19982;-65
2022/09/07 02:44:23;;;;;;;;;;;17.20;99.90;;;;;;5073739;28;19954;-65
2022/09/07 02:46:55;;;;;;;;;;;17.20;99.90;;;;;;5073398;28;19936;-64
2022/09/07 02:49:27;;;;;;;;;;;17.10;99.90;;;;;;5072983;28;19968;-65
2022/09/07 02:51:58;;;;;;;;;;;17.10;99.90;;;;;;5073866;28;19925;-65
2022/09/07 02:54:37;;;;;;;;;;;17.10;99.90;;;;;;5073333;28;20453;-65
2022/09/07 02:57:09;;;;;;;;;;;17.00;99.90;;;;;;5073325;28;19928;-65
2022/09/07 02:59:45;;;;;;;;;;;17.00;99.90;;;;;;5073049;28;19993;-65
2022/09/07 03:02:14;;;;;;;;;;;17.10;99.90;;;;;;5073663;28;20280;-65
2022/09/07 03:04:45;;;;;;;;;;;17.00;99.90;;;;;;5073180;28;20449;-65
2022/09/07 03:07:13;;;;;;;;;;;17.00;99.90;;;;;;5073132;28;19931;-65
2022/09/07 03:09:44;;;;;;;;;;;16.90;99.90;;;;;;5068278;28;19924;-65
2022/09/07 03:12:11;;;;;;;;;;;17.00;99.90;;;;;;5063498;28;20023;-64
2022/09/07 03:14:39;;;;;;;;;;;17.00;99.90;;;;;;5071179;28;19924;-65
2022/09/07 03:17:07;;;;;;;;;;;17.00;99.90;;;;;;5069569;28;19928;-65
2022/09/07 03:19:34;;;;;;;;;;;16.90;99.90;;;;;;5072336;28;19924;-64
2022/09/07 03:22:00;;;;;;;;;;;16.90;99.90;;;;;;5072881;28;19929;-65
2022/09/07 03:24:27;;;;;;;;;;;16.80;99.90;;;;;;5072846;28;19950;-65
2022/09/07 03:26:56;;;;;;;;;;;16.80;99.90;;;;;;5072751;28;19974;-65
2022/09/07 03:29:23;;;;;;;;;;;16.90;99.90;;;;;;5072572;28;19932;-65
2022/09/07 03:31:49;;;;;;;;;;;16.90;99.90;;;;;;5072643;28;19974;-64
2022/09/07 03:34:16;;;;;;;;;;;16.90;99.90;;;;;;5072644;28;19986;-65
2022/09/07 03:36:43;;;;;;;;;;;16.90;99.90;;;;;;5072464;28;20002;-65
2022/09/07 03:39:11;;;;;;;;;;;16.90;99.90;;;;;;5072373;28;19970;-65
2022/09/07 03:41:38;;;;;;;;;;;16.90;99.90;;;;;;5072378;28;19924;-65
2022/09/07 03:44:07;;;;;;;;;;;16.80;99.90;;;;;;5073004;28;19924;-65
2022/09/07 03:46:34;;;;;;;;;;;16.80;99.90;;;;;;5072531;28;19924;-65
2022/09/07 03:49:01;;;;;;;;;;;16.80;99.90;;;;;;5071456;28;19960;-64
2022/09/07 03:51:28;;;;;;;;;;;16.70;99.90;;;;;;5072400;28;19925;-65
2022/09/07 03:53:56;;;;;;;;;;;16.70;99.90;;;;;;5072556;28;19928;-65
2022/09/07 03:56:24;;;;;;;;;;;16.70;99.90;;;;;;5073861;28;19925;-65
2022/09/07 03:58:53;;;;;;;;;;;16.70;99.90;;;;;;5071884;28;19928;-65
2022/09/07 04:01:22;;;;;;;;;;;16.70;99.90;;;;;;5060624;28;19932;-64
2022/09/07 04:03:50;;;;;;;;;;;16.70;99.90;;;;;;5072432;28;19978;-65
2022/09/07 04:06:17;;;;;;;;;;;16.70;99.90;;;;;;5072199;28;19924;-65
2022/09/07 04:08:44;;;;;;;;;;;16.70;99.90;;;;;;5071799;28;20383;-65
2022/09/07 04:11:13;;;;;;;;;;;16.60;99.90;;;;;;5070180;28;20343;-64
2022/09/07 04:13:40;;;;;;;;;;;16.70;99.90;;;;;;5068122;28;19925;-65
2022/09/07 04:16:11;;;;;;;;;;;16.70;99.90;;;;;;5070008;28;19978;-65
2022/09/07 04:18:39;;;;;;;;;;;16.60;99.90;;;;;;5060105;28;20316;-65
2022/09/07 04:21:06;;;;;;;;;;;16.70;99.90;;;;;;5064815;28;19967;-65
2022/09/07 04:23:32;;;;;;;;;;;16.60;99.90;;;;;;5067886;28;20408;-65
2022/09/07 04:25:59;;;;;;;;;;;16.60;99.90;;;;;;5062140;28;19956;-65
2022/09/07 04:28:25;;;;;;;;;;;16.60;99.90;;;;;;5070771;28;19952;-65
2022/09/07 04:30:52;;;;;;;;;;;16.60;99.90;;;;;;5059472;28;19928;-65
2022/09/07 04:33:19;;;;;;;;;;;16.60;99.90;;;;;;5063634;28;20458;-69
2022/09/07 04:35:47;;;;;;;;;;;16.60;99.90;;;;;;5066304;28;19971;-64
2022/09/07 04:38:15;;;;;;;;;;;16.50;99.90;;;;;;5062033;28;19965;-65
2022/09/07 04:40:42;;;;;;;;;;;16.50;99.90;;;;;;5073031;28;19928;-65
2022/09/07 04:43:11;;;;;;;;;;;16.50;99.90;;;;;;5073000;28;20358;-65
2022/09/07 04:45:39;;;;;;;;;;;16.60;99.90;;;;;;5065036;28;19925;-65
2022/09/07 04:48:05;;;;;;;;;;;16.60;99.90;;;;;;5067470;28;19924;-65
2022/09/07 04:50:32;;;;;;;;;;;16.60;99.90;;;;;;5070269;28;19928;-65
2022/09/07 04:53:01;;;;;;;;;;;16.60;99.90;;;;;;5064698;28;19971;-65
2022/09/07 04:55:27;;;;;;;;;;;16.60;99.90;;;;;;5070294;28;19932;-64
2022/09/07 04:57:54;;;;;;;;;;;16.60;99.90;;;;;;5070374;28;19924;-64
2022/09/07 05:00:21;;;;;;;;;;;16.60;99.90;;;;;;5069085;28;19960;-63
2022/09/07 05:02:47;;;;;;;;;;;16.60;99.90;;;;;;5063655;28;20381;-65
2022/09/07 05:05:14;;;;;;;;;;;16.60;99.90;;;;;;5068724;28;19924;-65
2022/09/07 05:07:41;;;;;;;;;;;16.60;99.90;;;;;;5069845;28;19925;-64
2022/09/07 05:10:09;;;;;;;;;;;16.60;99.90;;;;;;5069021;28;20338;-65
2022/09/07 05:12:36;;;;;;;;;;;16.60;99.90;;;;;;5067834;28;19925;-65
2022/09/07 05:15:03;;;;;;;;;;;16.60;99.90;;;;;;5069745;28;20338;-65
2022/09/07 05:17:30;;;;;;;;;;;16.70;99.90;;;;;;5069658;28;19932;-66
2022/09/07 05:19:57;;;;;;;;;;;16.70;99.90;;;;;;5069110;28;20289;-65
2022/09/07 05:22:24;;;;;;;;;;;16.80;99.90;;;;;;5069897;28;19964;-65
2022/09/07 05:24:51;;;;;;;;;;;16.90;99.90;;;;;;5067527;28;20001;-64
2022/09/07 05:27:19;;;;;;;;;;;16.90;99.90;;;;;;5067157;28;19974;-66
2022/09/07 05:29:46;;;;;;;;;;;17.00;99.90;;;;;;5069094;28;20342;-66
2022/09/07 05:32:13;;;;;;;;;;;17.00;99.90;;;;;;5070522;28;20023;-65
2022/09/07 05:34:40;;;;;;;;;;;17.00;99.90;;;;;;5069171;28;19954;-65
2022/09/07 05:37:07;;;;;;;;;;;17.00;99.90;;;;;;5069296;28;19924;-66
2022/09/07 05:39:34;;;;;;;;;;;16.90;99.90;;;;;;5068718;28;19994;-66
2022/09/07 05:42:00;;;;;;;;;;;17.00;99.90;;;;;;5069532;28;20207;-65
2022/09/07 05:44:30;;;;;;;;;;;17.00;99.90;;;;;;5070290;28;19928;-66
2022/09/07 05:46:57;;;;;;;;;;;17.00;99.90;;;;;;5067729;28;19931;-66
2022/09/07 05:49:24;;;;;;;;;;;17.00;99.90;;;;;;5067116;28;19924;-66
2022/09/07 05:51:50;;;;;;;;;;;17.00;99.90;;;;;;5069203;28;20442;-66
2022/09/07 05:54:17;;;;;;;;;;;17.10;99.90;;;;;;5069674;28;19928;-66
2022/09/07 05:56:44;;;;;;;;;;;17.30;99.90;;;;;;5073437;28;19925;-66
2022/09/07 05:59:11;;;;;;;;;;;17.50;99.90;;;;;;5072709;28;19931;-66
2022/09/07 06:01:39;;;;;;;;;;;17.60;99.90;;;;;;5073389;28;19990;-66
2022/09/07 06:04:06;;;;;;;;;;;17.70;99.90;;;;;;5073361;28;20392;-66
2022/09/07 06:06:37;;;;;;;;;;;17.80;99.90;;;;;;5073055;28;19928;-66
2022/09/07 06:09:03;;;;;;;;;;;17.80;99.90;;;;;;5072539;28;19928;-66
2022/09/07 06:11:30;;;;;;;;;;;17.90;99.90;;;;;;5073089;28;19931;-66
2022/09/07 06:13:57;;;;;;;;;;;17.90;99.90;;;;;;5073177;28;19928;-66
2022/09/07 06:16:24;;;;;;;;;;;18.00;99.90;;;;;;5072936;28;19935;-66
2022/09/07 06:18:52;;;;;;;;;;;17.80;99.90;;;;;;5072448;28;19928;-65
2022/09/07 06:21:20;;;;;;;;;;;17.70;99.90;;;;;;5072205;28;19924;-66
2022/09/07 06:23:48;;;;;;;;;;;17.70;99.90;;;;;;5073366;28;19986;-66
2022/09/07 06:26:15;;;;;;;;;;;17.70;99.90;;;;;;5073124;28;19960;-66
2022/09/07 06:28:42;;;;;;;;;;;17.80;99.90;;;;;;5072566;28;19932;-66
2022/09/07 06:31:10;;;;;;;;;;;18.00;99.90;;;;;;5072387;28;19998;-67
2022/09/07 06:33:37;;;;;;;;;;;18.10;99.90;;;;;;5070626;28;19928;-67
2022/09/07 06:36:06;;;;;;;;;;;18.30;99.90;;;;;;5072658;28;19964;-67
2022/09/07 06:38:33;;;;;;;;;;;18.30;99.90;;;;;;5072330;28;19953;-66
2022/09/07 06:41:00;;;;;;;;;;;18.40;99.90;;;;;;5070098;28;19928;-66
2022/09/07 06:43:27;;;;;;;;;;;18.30;99.90;;;;;;5071249;28;20411;-66
2022/09/07 06:45:54;;;;;;;;;;;18.30;99.90;;;;;;5072411;28;19932;-66
2022/09/07 06:48:21;;;;;;;;;;;18.50;99.90;;;;;;5072723;28;19932;-67
2022/09/07 06:50:54;;;;;;;;;;;18.50;99.90;;;;;;5065089;28;19928;-67
2022/09/07 06:53:23;;;;;;;;;;;18.60;99.90;;;;;;5066121;28;19966;-66
2022/09/07 06:55:50;;;;;;;;;;;18.60;99.90;;;;;;5064307;28;19973;-67
2022/09/07 06:58:16;;;;;;;;;;;18.60;99.90;;;;;;5062849;28;19924;-66
2022/09/07 07:00:43;;;;;;;;;;;18.70;99.90;;;;;;5063866;28;19978;-66
2022/09/07 07:03:10;;;;;;;;;;;18.60;99.90;;;;;;5059780;28;19925;-66
2022/09/07 07:05:36;;;;;;;;;;;18.60;99.90;;;;;;5067424;28;19928;-66
2022/09/07 07:08:03;;;;;;;;;;;18.70;99.90;;;;;;5064858;28;19974;-66
2022/09/07 07:10:36;;;;;;;;;;;18.70;99.90;;;;;;5068705;28;20457;-66
2022/09/07 07:13:02;;;;;;;;;;;18.70;99.90;;;;;;5060082;28;19936;-66
2022/09/07 07:15:30;;;;;;;;;;;18.70;99.90;;;;;;5064773;28;20334;-66
2022/09/07 07:17:56;;;;;;;;;;;18.60;99.90;;;;;;5064617;28;19963;-66
2022/09/07 07:20:23;;;;;;;;;;;18.50;99.90;;;;;;5059409;28;19928;-66
2022/09/07 07:22:50;;;;;;;;;;;18.50;99.90;;;;;;5061795;28;19925;-66
2022/09/07 07:25:17;;;;;;;;;;;18.40;99.90;;;;;;5062852;28;19924;-66
2022/09/07 07:27:45;;;;;;;;;;;18.30;99.90;;;;;;5063431;28;19945;-66
2022/09/07 07:30:12;;;;;;;;;;;18.30;99.90;;;;;;5059301;28;19925;-66
2022/09/07 07:32:39;;;;;;;;;;;18.30;99.90;;;;;;5067581;28;19942;-67
2022/09/07 07:35:07;;;;;;;;;;;18.30;99.90;;;;;;5066662;28;20403;-66
2022/09/07 07:37:35;;;;;;;;;;;18.50;99.90;;;;;;5057630;28;19955;-66
2022/09/07 07:40:02;;;;;;;;;;;18.70;99.90;;;;;;5056516;28;19924;-67
2022/09/07 07:42:29;;;;;;;;;;;18.80;99.90;;;;;;5059266;28;19924;-67
2022/09/07 07:44:57;;;;;;;;;;;19.10;99.90;;;;;;5062839;28;19932;-67
2022/09/07 07:47:24;;;;;;;;;;;19.10;99.90;;;;;;5063557;28;19929;-67
2022/09/07 07:49:50;;;;;;;;;;;19.30;99.90;;;;;;5061423;28;20388;-67
2022/09/07 07:52:17;;;;;;;;;;;19.30;99.90;;;;;;5062480;28;19970;-66
2022/09/07 07:54:44;;;;;;;;;;;19.40;99.90;;;;;;5066281;28;19961;-67
2022/09/07 07:57:11;;;;;;;;;;;19.30;99.90;;;;;;5058690;28;19931;-67
2022/09/07 07:59:38;;;;;;;;;;;19.00;99.90;;;;;;5056427;28;19936;-67
2022/09/07 08:02:07;;;;;;;;;;;19.10;99.90;;;;;;5058656;28;19924;-66
2022/09/07 08:04:34;;;;;;;;;;;19.20;99.90;;;;;;5062965;28;19925;-67
2022/09/07 08:07:01;;;;;;;;;;;19.20;99.90;;;;;;5063483;28;19925;-66
2022/09/07 08:09:28;;;;;;;;;;;19.30;99.90;;;;;;5057803;28;19932;-67
2022/09/07 08:11:55;;;;;;;;;;;19.50;99.90;;;;;;5063966;28;19929;-67
2022/09/07 08:14:21;;;;;;;;;;;19.60;99.90;;;;;;5058375;28;20354;-66
2022/09/07 08:16:48;;;;;;;;;;;19.30;99.90;;;;;;5066701;28;19986;-66
2022/09/07 08:19:16;;;;;;;;;;;19.50;99.90;;;;;;5057266;28;19924;-66
2022/09/07 08:21:43;;;;;;;;;;;19.40;99.90;;;;;;5057159;28;20011;-67
2022/09/07 08:24:10;;;;;;;;;;;19.20;99.90;;;;;;5066144;28;19924;-66
2022/09/07 08:26:37;;;;;;;;;;;19.00;99.90;;;;;;5055639;28;19928;-66
2022/09/07 08:29:04;;;;;;;;;;;18.90;99.90;;;;;;5064661;28;19924;-66
2022/09/07 08:31:30;;;;;;;;;;;19.10;99.90;;;;;;5057907;28;19935;-66
2022/09/07 08:33:57;;;;;;;;;;;19.20;99.90;;;;;;5057683;28;20344;-67
2022/09/07 08:36:25;;;;;;;;;;;19.40;99.90;;;;;;5058209;28;20011;-66
2022/09/07 08:38:52;;;;;;;;;;;19.50;99.90;;;;;;5055009;28;20345;-65
2022/09/07 08:41:26;;;;;;;;;;;19.40;99.90;;;;;;5062112;28;20358;-66
2022/09/07 08:43:58;;;;;;;;;;;19.50;99.90;;;;;;5059564;28;19925;-67
2022/09/07 08:46:28;;;;;;;;;;;19.70;99.90;;;;;;5060361;28;19940;-67
2022/09/07 08:48:56;;;;;;;;;;;19.70;99.90;;;;;;5054639;28;20456;-66
2022/09/07 08:51:27;;;;;;;;;;;19.90;99.90;;;;;;5057609;28;19928;-67
2022/09/07 08:53:55;;;;;;;;;;;19.90;99.90;;;;;;5055094;28;19932;-66
2022/09/07 08:56:24;;;;;;;;;;;19.90;99.90;;;;;;5057756;28;20387;-67
2022/09/07 08:58:52;;;;;;;;;;;20.00;99.90;;;;;;5056524;28;19925;-66
2022/09/07 09:01:20;;;;;;;;;;;20.00;99.90;;;;;;5057164;28;19924;-67
2022/09/07 09:03:47;;;;;;;;;;;19.90;99.90;;;;;;5057450;28;19932;-67
2022/09/07 09:06:17;;;;;;;;;;;20.20;99.90;;;;;;5062827;28;19924;-66
2022/09/07 09:08:49;;;;;;;;;;;20.40;99.90;;;;;;5057133;28;19987;-67
2022/09/07 09:11:20;;;;;;;;;;;20.40;99.90;;;;;;5052690;28;19986;-66
2022/09/07 09:13:54;;;;;;;;;;;20.40;99.90;;;;;;5056592;28;19933;-66
2022/09/07 09:16:23;;;;;;;;;;;20.40;99.90;;;;;;5061802;28;19966;-66
2022/09/07 09:18:59;;;;;;;;;;;20.60;99.90;;;;;;5056571;28;19982;-67
2022/09/07 09:21:26;;;;;;;;;;;20.70;99.90;;;;;;5061087;28;20304;-67
2022/09/07 09:23:55;;;;;;;;;;;20.70;99.90;;;;;;5059478;28;19924;-67
2022/09/07 09:26:24;;;;;;;;;;;21.00;99.90;;;;;;5055294;28;20392;-66
2022/09/07 09:28:51;;;;;;;;;;;21.00;99.90;;;;;;5056141;28;19924;-64
2022/09/07 09:31:19;;;;;;;;;;;21.30;99.90;;;;;;5058420;28;19932;-66
2022/09/07 09:34:06;;;;;;;;;;;21.40;99.90;;;;;;5056253;28;19925;-66
2022/09/07 09:36:34;;;;;;;;;;;21.30;99.90;;;;;;5062196;28;20351;-66
2022/09/07 09:39:02;;;;;;;;;;;21.20;99.90;;;;;;5063574;28;19925;-66
2022/09/07 09:41:35;;;;;;;;;;;21.20;99.90;;;;;;5056950;28;19958;-66
2022/09/07 09:44:03;;;;;;;;;;;21.40;99.90;;;;;;5060491;28;19925;-66
2022/09/07 09:46:31;;;;;;;;;;;21.40;99.90;;;;;;5056796;28;19990;-66
2022/09/07 09:49:00;;;;;;;;;;;21.40;99.90;;;;;;5059867;28;19934;-66
2022/09/07 09:51:27;;;;;;;;;;;21.40;99.90;;;;;;5050852;22;19929;-68
2022/09/07 09:53:56;;;;;;;;;;;21.40;99.90;;;;;;5033501;28;20020;-68
2022/09/07 09:56:36;;;;;;;;;;;21.50;99.90;;;;;;5033807;28;19925;-68
2022/09/07 09:59:11;;;;;;;;;;;21.80;99.90;;;;;;5026324;28;20378;-68
2022/09/07 10:01:38;;;;;;;;;;;22.00;99.90;;;;;;5033790;28;19968;-67
2022/09/07 10:04:17;;;;;;;;;;;22.20;99.90;;;;;;5052688;28;19986;-69
2022/09/07 10:06:48;;;;;;;;;;;22.30;99.90;;;;;;5027215;28;19931;-68
2022/09/07 10:09:18;;;;;;;;;;;22.20;99.90;;;;;;5030437;28;20305;-69
2022/09/07 10:11:48;;;;;;;;;;;22.30;99.90;;;;;;5038433;28;19936;-68
2022/09/07 10:14:17;;;;;;;;;;;22.40;99.90;;;;;;5034217;28;19984;-68
2022/09/07 10:16:44;;;;;;;;;;;22.40;99.90;;;;;;5034745;28;19925;-68
2022/09/07 10:19:22;;;;;;;;;;;22.50;99.90;;;;;;5036950;28;20352;-68
2022/09/07 10:21:54;;;;;;;;;;;22.60;99.90;;;;;;5033920;28;19928;-68
2022/09/07 10:24:24;;;;;;;;;;;22.50;99.90;;;;;;5035492;28;19928;-68
2022/09/07 10:26:52;;;;;;;;;;;22.50;99.90;;;;;;5030544;28;20360;-68
2022/09/07 10:29:24;;;;;;;;;;;22.60;99.90;;;;;;5040730;28;19933;-66
2022/09/07 10:32:11;;;;;;;;;;;22.40;99.90;;;;;;5033968;28;19956;-69
2022/09/07 10:34:42;;;;;;;;;;;22.50;99.90;;;;;;5034785;28;19924;-69
2022/09/07 10:37:10;;;;;;;;;;;22.70;99.90;;;;;;5032549;28;19929;-69
2022/09/07 10:39:39;;;;;;;;;;;22.60;99.90;;;;;;5029582;28;20453;-69
2022/09/07 10:42:17;;;;;;;;;;;22.60;99.90;;;;;;5041222;28;20376;-69
2022/09/07 10:44:50;;;;;;;;;;;22.20;99.90;;;;;;5033956;28;19992;-68
2022/09/07 10:47:21;;;;;;;;;;;22.20;99.90;;;;;;5033166;28;20447;-68
2022/09/07 10:49:53;;;;;;;;;;;22.70;99.90;;;;;;5034282;28;19932;-68
2022/09/07 10:52:22;;;;;;;;;;;23.00;99.90;;;;;;5035788;28;19924;-70
2022/09/07 10:54:52;;;;;;;;;;;23.30;99.90;;;;;;5036518;28;19925;-70
2022/09/07 10:57:33;;;;;;;;;;;23.30;99.90;;;;;;5035358;28;19928;-68
2022/09/07 11:00:04;;;;;;;;;;;23.80;99.90;;;;;;5031686;28;19925;-69
2022/09/07 11:02:34;;;;;;;;;;;23.90;99.90;;;;;;5039797;28;19967;-68
2022/09/07 11:05:03;;;;;;;;;;;24.40;99.90;;;;;;5032046;28;19940;-68
2022/09/07 11:07:40;;;;;;;;;;;24.70;99.90;;;;;;5052472;28;19925;-68
2022/09/07 11:10:14;;;;;;;;;;;25.00;99.90;;;;;;5034824;28;20396;-68
2022/09/07 11:12:44;;;;;;;;;;;25.40;99.90;;;;;;5035281;28;20346;-69
2022/09/07 11:15:16;;;;;;;;;;;25.70;99.90;;;;;;5035040;28;19963;-68
2022/09/07 11:17:45;;;;;;;;;;;25.80;99.90;;;;;;5051319;28;19940;-69
2022/09/07 11:20:17;;;;;;;;;;;26.30;99.90;;;;;;5034706;28;19956;-69
2022/09/07 11:22:45;;;;;;;;;;;26.20;99.90;;;;;;5041432;28;19925;-69
2022/09/07 11:25:16;;;;;;;;;;;26.40;99.90;;;;;;5034987;28;20412;-69
2022/09/07 11:27:46;;;;;;;;;;;28.40;99.90;;;;;;5040329;28;19978;-69
2022/09/07 11:30:17;;;;;;;;;;;30.80;99.90;;;;;;5037610;28;19925;-69
2022/09/07 11:32:49;;;;;;;;;;;32.00;99.90;;;;;;5034185;28;20392;-69
2022/09/07 11:35:19;;;;;;;;;;;30.90;99.90;;;;;;5034847;28;20453;-69
2022/09/07 11:37:48;;;;;;;;;;;31.20;99.90;;;;;;5038371;28;19925;-69
2022/09/07 11:40:20;;;;;;;;;;;31.30;99.90;;;;;;5040093;28;20037;-68
2022/09/07 11:42:51;;;;;;;;;;;32.10;99.90;;;;;;5035013;28;20320;-69
2022/09/07 11:45:21;;;;;;;;;;;32.40;99.90;;;;;;5039863;28;20389;-69
2022/09/07 11:47:49;;;;;;;;;;;33.50;99.90;;;;;;5035091;28;20027;-69
2022/09/07 11:50:17;;;;;;;;;;;33.80;99.90;;;;;;5033992;28;20019;-68
2022/09/07 11:52:47;;;;;;;;;;;32.70;99.90;;;;;;5033699;28;19963;-67
2022/09/07 11:55:19;;;;;;;;;;;33.30;99.90;;;;;;5034645;28;19963;-71
2022/09/07 11:58:01;;;;;;;;;;;33.20;99.90;;;;;;5033728;28;20309;-70
2022/09/07 12:00:31;;;;;;;;;;;33.80;99.90;;;;;;5033800;28;20023;-69
2022/09/07 12:03:12;;;;;;;;;;;33.80;99.90;;;;;;5040263;28;19956;-69
2022/09/07 12:05:58;;;;;;;;;;;34.10;99.90;;;;;;5032794;28;19994;-69
2022/09/07 12:08:34;;;;;;;;;;;34.40;99.90;;;;;;5030657;28;20420;-69
2022/09/07 12:11:14;;;;;;;;;;;34.00;99.90;;;;;;5031707;28;20385;-70
2022/09/07 12:13:55;;;;;;;;;;;34.90;99.90;;;;;;5053599;28;20480;-70
2022/09/07 12:16:28;;;;;;;;;;;36.00;99.90;;;;;;5034193;28;19979;-69
2022/09/07 12:19:06;;;;;;;;;;;34.60;99.90;;;;;;5039392;28;20032;-69
2022/09/07 12:21:39;;;;;;;;;;;34.00;99.90;;;;;;5034060;28;19994;-69
2022/09/07 12:24:21;;;;;;;;;;;33.80;99.90;;;;;;5034052;28;19960;-69
2022/09/07 12:26:51;;;;;;;;;;;32.30;99.90;;;;;;5033061;28;20019;-69
2022/09/07 12:29:23;;;;;;;;;;;32.60;99.90;;;;;;5051436;28;19960;-69
2022/09/07 12:31:50;;;;;;;;;;;33.30;99.90;;;;;;5032350;28;20491;-69
2022/09/07 12:34:36;;;;;;;;;;;34.60;99.90;;;;;;5046787;28;20464;-70
2022/09/07 12:37:22;;;;;;;;;;;34.50;99.90;;;;;;5051676;28;19971;-68
2022/09/07 12:39:49;;;;;;;;;;;35.30;99.90;;;;;;5033107;28;19956;-69
2022/09/07 12:42:16;;;;;;;;;;;;;;;;;;5034091;28;19995;-69
2022/09/07 12:44:44;;;;;;;;;;;37.30;99.90;;;;;;5051307;28;19932;-70
2022/09/07 12:47:26;;;;;;;;;;;36.80;99.90;;;;;;5033257;28;19979;-69
2022/09/07 12:50:04;;;;;;;;;;;37.00;99.90;;;;;;5032993;28;20019;-70
2022/09/07 12:52:53;;;;;;;;;;;37.00;99.90;;;;;;5044498;28;20472;-70
2022/09/07 12:55:37;;;;;;;;;;;36.30;99.90;;;;;;5045329;28;20246;-70
2022/09/07 12:58:13;;;;;;;;;;;37.50;99.90;;;;;;5029294;28;20028;-69
2022/09/07 13:00:49;;;;;;;;;;;37.30;99.90;;;;;;5029777;28;19960;-70
2022/09/07 13:03:21;;;;;;;;;;;38.30;99.90;;;;;;5033356;28;19925;-70
2022/09/07 13:05:54;;;;;;;;;;;37.50;99.90;;;;;;5053888;28;19925;-69
2022/09/07 13:08:32;;;;;;;;;;;36.50;99.90;;;;;;5050629;28;19964;-71
2022/09/07 13:11:13;;;;;;;;;;;36.30;99.90;;;;;;5030233;28;19971;-70
2022/09/07 13:13:40;;;;;;;;;;;35.60;99.90;;;;;;5053371;28;20016;-69
2022/09/07 13:16:27;;;;;;;;;;;34.30;99.90;;;;;;5034934;28;19947;-70
2022/09/07 13:18:53;;;;;;;;;;;34.50;99.90;;;;;;5050203;28;19960;-67
2022/09/07 13:21:30;;;;;;;;;;;34.00;99.90;;;;;;5051643;28;19975;-66
2022/09/07 13:24:17;;;;;;;;;;;32.90;99.90;;;;;;5037303;28;19928;-67
2022/09/07 13:26:52;;;;;;;;;;;33.30;99.90;;;;;;5031976;28;20438;-67
2022/09/07 13:29:20;;;;;;;;;;;35.10;99.90;;;;;;5059943;28;19931;-69
2022/09/07 13:31:53;;;;;;;;;;;36.30;99.90;;;;;;5032833;28;19925;-67
2022/09/07 13:34:30;;;;;;;;;;;36.20;99.90;;;;;;5024802;28;19932;-67
2022/09/07 13:36:57;;;;;;;;;;;36.10;99.90;;;;;;5032198;28;19929;-67
2022/09/07 13:39:24;;;;;;;;;;;36.10;99.90;;;;;;5028760;28;19932;-67
2022/09/07 13:41:52;;;;;;;;;;;36.80;99.90;;;;;;5035434;28;19932;-67
2022/09/07 13:44:20;;;;;;;;;;;35.60;99.90;;;;;;5030117;28;19924;-67
2022/09/07 13:46:50;;;;;;;;;;;34.90;99.90;;;;;;5018178;28;20015;-69
2022/09/07 13:49:23;;;;;;;;;;;34.90;99.90;;;;;;5032537;28;20377;-71
2022/09/07 13:51:52;;;;;;;;;;;33.10;99.90;;;;;;5026003;28;19929;-69
2022/09/07 13:54:21;;;;;;;;;;;32.60;99.90;;;;;;5033851;28;19925;-69
2022/09/07 13:56:52;;;;;;;;;;;33.00;99.90;;;;;;5029182;28;20355;-69
2022/09/07 13:59:22;;;;;;;;;;;32.70;99.90;;;;;;5033791;28;19956;-69
2022/09/07 14:01:49;;;;;;;;;;;33.00;99.90;;;;;;5035868;28;20347;-69
2022/09/07 14:04:21;;;;;;;;;;;33.20;99.90;;;;;;5036742;28;20318;-69
2022/09/07 14:06:48;;;;;;;;;;;33.90;99.90;;;;;;5026964;28;19982;-69
2022/09/07 14:09:15;;;;;;;;;;;34.30;99.90;;;;;;5035953;28;20498;-69
2022/09/07 14:11:43;;;;;;;;;;;34.80;99.90;;;;;;5035500;28;19924;-69
2022/09/07 14:14:12;;;;;;;;;;;34.60;99.90;;;;;;5032903;28;19928;-69
2022/09/07 14:16:40;;;;;;;;;;;34.60;99.90;;;;;;5036074;28;19925;-67
2022/09/07 14:19:11;;;;;;;;;;;34.40;99.90;;;;;;5037052;28;19977;-69
2022/09/07 14:21:39;;;;;;;;;;;33.80;99.90;;;;;;5039382;28;19936;-68
2022/09/07 14:24:18;;;;;;;;;;;32.90;99.90;;;;;;5034635;28;19940;-69
2022/09/07 14:26:45;;;;;;;;;;;33.30;99.90;;;;;;5037239;28;19929;-69
2022/09/07 14:29:20;;;;;;;;;;;34.20;99.90;;;;;;5039065;28;19978;-68
2022/09/07 14:31:47;;;;;;;;;;;33.00;99.90;;;;;;5038047;28;19939;-69
2022/09/07 14:34:16;;;;;;;;;;;32.70;99.90;;;;;;5036654;28;19924;-75